Llano, CA (93544)

1:24 AM PST on November 26, 2014 (GMT -0800)
Brian Ranch Airport (CL13) | Change Station
CLOSE
Current Station
Personal Weather Station
Location: Llano, CA
Elevation: 3200 ft
Nearby Weather Stations

Elev 3200 ft 34.52 °N, 117.76 °W | Updated 53 seconds ago

Clear
Clear
45.8 °F
Feels Like 46 °F
N
0.0
Wind Variable Wind from South

Today
High -- | Low -- °F
--% Chance of Precip.
Yesterday
High -- | Low -- °F
Precip. -- in
6:35 AM 4:41 PM
Waxing Crescent, 18% visible
Pressure 30.40 in
Visibility 10.0 miles
Clouds Clear
Windchill 46 °F
Dew Point 7 °F
Humidity 20%
Rainfall 0.00 in
Snow Depth Not available.
UV 0 out of 12
Pollen 2.60 out of 12
Air Quality Not available.
Flu Activity Not available.
METAR KGXA 260855Z AUTO 17003KT 10SM CLR 05/M17 A3038 RMK AO2 SLP293 T00461168 57004 PWINO TSNO $

More Conditions Fewer Conditions

Pressure 30.40 in
Visibility 10.0 miles
Clouds Clear
Windchill 46 °F
Dew Point 7 °F
Humidity 20%
Rainfall 0.00 in
Snow Depth Not available.
UV 0 out of 12
Pollen 2.60 out of 12
Air Quality Not available.
Flu Activity Not available.
METAR KGXA 260855Z AUTO 17003KT 10SM CLR 05/M17 A3038 RMK AO2 SLP293 T00461168 57004 PWINO TSNO $

More Conditions Fewer Conditions

10-Day Weather Forecast

Almanac

Astronomy

Nov. 26, 2014 Rise Set
Actual Time
Civil Twilight
Nautical Twilight
Astronomical Twilight
Moon
Length of Visible Light
Length of Day
Tomorrow will be .
, % of the Moon is Illuminated

Today's Extremes

State Highs State Lows

Community

WunderPhotos

Upload Photos

1,773,702 photos uploaded!

WunderBlogs® & News

Nearby

Air Quality

  Air Quality AQ Index Pollutant
Not available.

Snow Depth

Station Depth Elevation

Earthquake Activity

City Distance Mag. Time & Date
Minimum magnitude displayed is 2.5.

Coastal Water Temperatures

Place Temperature

Nearby Weather Stations